Time;durP1;ratioP1;P1;durP2;ratioP2;P2;SDS_P1;SDS_P2;PMS_P1;PMS_P2;Temp;Humidity;BMP_temperature;BMP_pressure;BME280_temperature;BME280_humidity;BME280_pressure;Samples;Min_cycle;Max_cycle;Signal;HPM_P1;HPM_P2
2023/06/13 00:02:16;;;;;;;4.85;4.40;;;22.30;53.30;;;;;;6241172;22;20030;-76
2023/06/13 00:04:43;;;;;;;4.85;4.28;;;22.30;53.30;;;;;;6268732;22;20027;-77
2023/06/13 00:07:09;;;;;;;6.43;4.85;;;22.30;53.50;;;;;;6268533;22;20078;-77
2023/06/13 00:09:35;;;;;;;5.75;5.00;;;22.30;53.50;;;;;;6269349;22;20049;-76
2023/06/13 00:12:02;;;;;;;7.20;4.68;;;22.20;53.70;;;;;;6268888;22;20425;-77
2023/06/13 00:14:28;;;;;;;5.70;5.13;;;22.20;53.80;;;;;;6269301;22;19996;-77
2023/06/13 00:16:54;;;;;;;6.88;4.72;;;22.10;53.90;;;;;;6270648;22;20008;-77
2023/06/13 00:19:20;;;;;;;7.53;4.88;;;22.10;54.00;;;;;;6244115;22;20098;-77
2023/06/13 00:21:47;;;;;;;5.45;4.35;;;22.00;54.00;;;;;;6243727;22;20030;-77
2023/06/13 00:24:13;;;;;;;5.05;4.55;;;22.10;54.20;;;;;;6271198;22;20010;-77
2023/06/13 00:26:38;;;;;;;6.75;4.93;;;22.00;54.30;;;;;;6270947;22;20035;-78
2023/06/13 00:29:04;;;;;;;4.72;4.32;;;22.00;54.50;;;;;;6271875;22;20162;-78
2023/06/13 00:31:30;;;;;;;6.85;4.75;;;21.90;54.50;;;;;;6271454;22;20390;-78
2023/06/13 00:33:59;;;;;;;7.32;4.03;;;21.90;54.60;;;;;;6270833;22;20031;-76
2023/06/13 00:36:27;;;;;;;7.78;5.07;;;21.90;54.60;;;;;;6270841;22;19999;-77
2023/06/13 00:38:54;;;;;;;7.05;4.70;;;21.90;54.70;;;;;;6271419;22;19999;-77
2023/06/13 00:41:20;;;;;;;7.50;5.07;;;21.80;55.00;;;;;;6271220;22;20007;-77
2023/06/13 00:43:46;;;;;;;5.80;4.53;;;21.80;55.00;;;;;;6271478;22;20084;-78
2023/06/13 00:46:13;;;;;;;7.65;4.57;;;21.80;55.10;;;;;;6243447;22;20004;-77
2023/06/13 00:48:42;;;;;;;5.95;5.35;;;21.70;55.30;;;;;;6271429;22;19999;-77
2023/06/13 00:51:09;;;;;;;5.10;4.60;;;21.70;55.50;;;;;;6272638;22;20006;-78
2023/06/13 00:53:36;;;;;;;5.63;4.85;;;21.60;55.70;;;;;;6245996;22;20436;-77
2023/06/13 00:56:02;;;;;;;6.28;4.45;;;21.60;55.70;;;;;;6273003;22;20046;-77
2023/06/13 00:58:28;;;;;;;5.32;4.43;;;21.50;55.90;;;;;;6272784;22;20042;-78
2023/06/13 01:00:54;;;;;;;7.65;4.72;;;21.50;56.00;;;;;;6273267;22;20007;-77
2023/06/13 01:03:20;;;;;;;6.72;4.97;;;21.50;56.10;;;;;;6272997;22;20000;-78
2023/06/13 01:05:47;;;;;;;6.00;4.55;;;21.40;56.10;;;;;;6272204;22;20145;-78
2023/06/13 01:08:18;;;;;;;6.22;4.82;;;21.40;56.20;;;;;;6273141;22;20046;-77
2023/06/13 01:10:52;;;;;;;8.13;4.65;;;21.30;56.30;;;;;;6272644;22;20027;-76
2023/06/13 01:13:24;;;;;;;7.80;4.95;;;21.30;57.00;;;;;;6273039;22;20574;-77
2023/06/13 01:16:13;;;;;;;6.90;5.03;;;21.30;56.60;;;;;;6272722;22;20436;-77
2023/06/13 01:18:43;;;;;;;5.95;5.07;;;21.20;56.70;;;;;;6272669;22;20004;-77
2023/06/13 01:21:10;;;;;;;5.78;5.28;;;21.20;56.70;;;;;;6273012;22;20004;-76
2023/06/13 01:23:39;;;;;;;6.35;5.05;;;21.20;56.90;;;;;;6273434;22;20066;-77
2023/06/13 01:26:13;;;;;;;7.18;4.50;;;21.20;57.10;;;;;;6245725;22;20025;-77
2023/06/13 01:28:44;;;;;;;5.72;4.22;;;21.10;57.20;;;;;;6273090;22;20003;-78
2023/06/13 01:31:13;;;;;;;5.05;4.53;;;21.10;57.30;;;;;;6272845;22;20000;-76
2023/06/13 01:33:39;;;;;;;5.57;4.80;;;21.00;57.20;;;;;;6272212;22;20000;-77
2023/06/13 01:36:06;;;;;;;5.72;4.97;;;21.00;57.40;;;;;;6272843;22;20000;-76
2023/06/13 01:38:32;;;;;;;7.20;5.13;;;21.00;57.80;;;;;;6272707;22;19999;-77
2023/06/13 01:40:58;;;;;;;5.43;4.70;;;20.90;57.70;;;;;;6272619;22;20003;-77
2023/06/13 01:43:23;;;;;;;8.15;5.40;;;20.90;57.80;;;;;;6273812;22;20026;-77
2023/06/13 01:45:54;;;;;;;6.75;5.15;;;20.90;57.80;;;;;;6273604;22;20015;-77
2023/06/13 01:48:52;;;;;;;7.20;5.40;;;20.80;58.00;;;;;;6273254;22;20011;-77
2023/06/13 01:51:44;;;;;;;8.55;4.72;;;20.80;58.20;;;;;;6256868;22;20030;-78
2023/06/13 01:54:17;;;;;;;9.15;5.35;;;20.70;58.30;;;;;;6245026;22;20023;-78
2023/06/13 01:56:44;;;;;;;5.88;5.25;;;20.70;58.30;;;;;;6272497;22;20003;-77
2023/06/13 01:59:11;;;;;;;5.82;4.88;;;20.60;58.40;;;;;;6272054;22;20034;-77
2023/06/13 02:01:38;;;;;;;5.50;5.00;;;20.60;58.40;;;;;;6271963;22;20325;-77
2023/06/13 02:04:04;;;;;;;6.40;4.30;;;20.50;58.60;;;;;;6272369;22;20050;-77
2023/06/13 02:06:32;;;;;;;7.07;5.40;;;20.50;58.70;;;;;;6272682;22;20011;-77
2023/06/13 02:08:58;;;;;;;5.88;4.53;;;20.40;58.80;;;;;;6244778;22;20003;-77
2023/06/13 02:11:25;;;;;;;5.25;4.75;;;20.30;58.90;;;;;;6272821;22;19999;-77
2023/06/13 02:13:50;;;;;;;7.20;5.30;;;20.30;59.00;;;;;;6272580;22;20000;-77
2023/06/13 02:16:18;;;;;;;9.07;6.00;;;20.30;59.00;;;;;;6244605;22;20003;-77
2023/06/13 02:18:44;;;;;;;7.78;5.18;;;20.20;59.10;;;;;;6272258;22;20000;-77
2023/06/13 02:21:09;;;;;;;5.47;4.97;;;20.20;59.10;;;;;;6272178;22;20004;-77
2023/06/13 02:23:35;;;;;;;8.00;5.72;;;20.20;59.30;;;;;;6272339;22;20000;-77
2023/06/13 02:26:01;;;;;;;7.05;5.75;;;20.20;59.50;;;;;;6271602;22;20007;-77
2023/06/13 02:28:27;;;;;;;7.13;5.18;;;20.10;59.50;;;;;;6272419;22;20011;-77
2023/06/13 02:30:53;;;;;;;6.10;5.57;;;20.10;59.70;;;;;;6270833;22;19999;-77
2023/06/13 02:33:18;;;;;;;5.88;5.18;;;20.10;59.80;;;;;;6271215;22;20057;-77
2023/06/13 02:35:45;;;;;;;7.20;5.15;;;20.00;59.80;;;;;;6270953;22;20283;-77
2023/06/13 02:38:11;;;;;;;6.40;5.45;;;20.00;59.90;;;;;;6271029;22;19999;-77
2023/06/13 02:40:40;;;;;;;8.30;5.00;;;20.00;60.00;;;;;;6271357;22;20006;-76
2023/06/13 02:43:05;;;;;;;6.60;5.40;;;19.90;60.00;;;;;;6271952;22;20004;-77
2023/06/13 02:45:31;;;;;;;7.20;5.85;;;19.90;60.10;;;;;;6271918;22;19996;-77
2023/06/13 02:47:57;;;;;;;10.90;6.28;;;19.80;60.40;;;;;;6271504;22;20038;-77
2023/06/13 02:50:23;;;;;;;8.07;7.25;;;19.80;60.40;;;;;;6245255;22;20082;-77
2023/06/13 02:52:48;;;;;;;6.93;6.30;;;19.70;60.30;;;;;;6272109;22;20027;-77
2023/06/13 02:55:14;;;;;;;7.57;6.85;;;19.80;60.40;;;;;;6272226;22;20010;-77
2023/06/13 02:57:43;;;;;;;8.07;7.25;;;19.70;60.40;;;;;;6244926;22;20011;-77
2023/06/13 03:00:11;;;;;;;8.27;7.25;;;19.70;60.70;;;;;;6271223;22;20083;-77
2023/06/13 03:02:37;;;;;;;7.93;6.80;;;19.70;60.80;;;;;;6272051;22;19996;-76
2023/06/13 03:05:07;;;;;;;7.50;6.90;;;19.60;60.90;;;;;;6271526;22;20011;-77
2023/06/13 03:07:32;;;;;;;7.13;6.32;;;19.60;61.00;;;;;;6272316;22;19996;-77
2023/06/13 03:10:06;;;;;;;10.43;6.28;;;19.60;61.70;;;;;;6271653;22;20075;-77
2023/06/13 03:12:31;;;;;;;;;;;19.60;61.20;;;;;;6272588;22;20385;-76
2023/06/13 03:14:57;;;;;;;7.50;6.78;;;19.50;61.10;;;;;;6270842;22;19907;-76
2023/06/13 03:17:22;;;;;;;7.55;6.50;;;19.40;61.20;;;;;;6272962;22;20106;-77
2023/06/13 03:19:49;;;;;;;7.18;6.10;;;19.40;61.20;;;;;;6244692;22;20405;-77
2023/06/13 03:22:16;;;;;;;8.07;5.95;;;19.40;61.30;;;;;;6271821;22;20071;-77
2023/06/13 03:24:42;;;;;;;6.55;5.68;;;19.40;61.50;;;;;;6272194;22;20409;-77
2023/06/13 03:27:09;;;;;;;6.43;5.70;;;19.40;61.50;;;;;;6271723;22;19999;-77
2023/06/13 03:29:35;;;;;;;6.60;5.82;;;19.30;61.70;;;;;;6271929;22;20061;-77
2023/06/13 03:32:00;;;;;;;7.32;5.88;;;19.30;61.60;;;;;;6247614;22;20383;-77
2023/06/13 03:34:28;;;;;;;7.05;6.03;;;19.30;61.90;;;;;;6248314;22;20027;-77
2023/06/13 03:36:54;;;;;;;7.18;5.55;;;19.30;61.90;;;;;;6272507;22;20058;-77
2023/06/13 03:39:19;;;;;;;8.63;5.40;;;19.30;62.00;;;;;;6271861;22;20003;-77
2023/06/13 03:41:45;;;;;;;9.23;6.53;;;19.30;62.20;;;;;;6245296;22;20368;-77
2023/06/13 03:44:11;;;;;;;6.72;5.78;;;19.30;62.10;;;;;;6244723;22;20019;-77
2023/06/13 03:46:37;;;;;;;7.55;6.75;;;19.20;62.20;;;;;;6271573;22;20209;-77
2023/06/13 03:49:03;;;;;;;8.43;6.03;;;19.20;62.20;;;;;;6241390;22;20007;-77
2023/06/13 03:51:28;;;;;;;8.80;6.35;;;19.20;62.30;;;;;;6242337;22;20416;-78
2023/06/13 03:53:54;;;;;;;11.05;6.47;;;19.20;62.30;;;;;;6241725;22;20079;-78
2023/06/13 03:56:20;;;;;;;7.55;6.35;;;19.10;62.30;;;;;;6269558;22;20000;-77
2023/06/13 03:58:45;;;;;;;7.03;6.32;;;19.10;62.50;;;;;;6268360;22;20035;-77
2023/06/13 04:01:11;;;;;;;8.43;6.25;;;19.10;62.40;;;;;;6242051;22;20012;-77
2023/06/13 04:03:39;;;;;;;7.45;5.53;;;19.10;62.40;;;;;;6243389;22;20007;-78
2023/06/13 04:06:06;;;;;;;7.75;6.88;;;19.10;62.40;;;;;;6271288;22;20007;-77
2023/06/13 04:08:31;;;;;;;7.10;5.82;;;19.10;62.40;;;;;;6272053;22;20042;-77
2023/06/13 04:10:57;;;;;;;6.97;5.97;;;19.10;62.40;;;;;;6270621;22;20004;-78
2023/06/13 04:13:22;;;;;;;9.65;5.68;;;19.10;62.50;;;;;;6270547;22;20417;-78
2023/06/13 04:15:48;;;;;;;7.15;5.78;;;19.10;62.50;;;;;;6271615;22;20038;-78
2023/06/13 04:18:17;;;;;;;7.25;5.93;;;19.10;62.60;;;;;;6244143;22;20821;-77
2023/06/13 04:20:43;;;;;;;8.63;6.00;;;19.00;62.50;;;;;;6271324;22;20000;-77
2023/06/13 04:23:08;;;;;;;5.65;4.93;;;19.10;62.50;;;;;;6271317;22;20010;-78
2023/06/13 04:25:35;;;;;;;7.93;4.80;;;19.10;62.40;;;;;;6272858;22;20405;-77
2023/06/13 04:28:02;;;;;;;11.73;5.70;;;19.20;62.30;;;;;;6272234;22;20000;-78
2023/06/13 04:30:29;;;;;;;7.63;6.30;;;19.20;62.30;;;;;;6273580;22;20079;-78
2023/06/13 04:32:57;;;;;;;9.43;5.75;;;19.10;62.10;;;;;;6273025;22;20448;-78
2023/06/13 04:35:23;;;;;;;8.68;5.82;;;19.20;62.30;;;;;;6273555;22;19999;-78
2023/06/13 04:37:52;;;;;;;7.55;6.65;;;19.20;62.20;;;;;;6273267;22;20026;-78
2023/06/13 04:40:18;;;;;;;8.57;5.70;;;19.30;62.40;;;;;;6273016;22;20433;-77
2023/06/13 04:42:51;;;;;;;6.90;5.50;;;19.30;62.30;;;;;;6272712;22;20447;-78
2023/06/13 04:45:20;;;;;;;7.32;5.97;;;19.30;62.40;;;;;;6245853;22;20034;-78
2023/06/13 04:47:48;;;;;;;6.70;5.57;;;19.30;62.20;;;;;;6273095;22;20006;-77
2023/06/13 04:50:14;;;;;;;6.15;5.55;;;19.30;62.10;;;;;;6273145;22;20357;-78
2023/06/13 04:52:40;;;;;;;8.57;5.63;;;19.40;62.40;;;;;;6272996;22;20452;-78
2023/06/13 04:55:06;;;;;;;9.68;6.05;;;19.40;62.20;;;;;;6272991;22;20004;-77
2023/06/13 04:57:32;;;;;;;6.10;5.50;;;19.40;62.00;;;;;;6272767;22;20459;-77
2023/06/13 04:59:58;;;;;;;9.15;6.18;;;19.50;62.00;;;;;;6272527;22;20050;-78
2023/06/13 05:02:25;;;;;;;6.88;5.72;;;19.50;61.90;;;;;;6245954;22;20004;-78
2023/06/13 05:04:52;;;;;;;8.13;6.65;;;19.60;61.90;;;;;;6272930;22;20007;-78
2023/06/13 05:07:19;;;;;;;5.95;5.45;;;19.60;62.00;;;;;;6273069;22;19999;-78
2023/06/13 05:09:44;;;;;;;6.60;5.93;;;19.70;61.70;;;;;;6272659;22;20004;-77
2023/06/13 05:12:10;;;;;;;8.10;5.68;;;19.80;61.70;;;;;;6272210;22;20000;-78
2023/06/13 05:14:39;;;;;;;7.55;5.82;;;19.80;61.60;;;;;;6273364;22;20168;-79
2023/06/13 05:17:09;;;;;;;8.18;5.55;;;19.80;61.50;;;;;;6272465;22;20078;-78
2023/06/13 05:19:35;;;;;;;7.03;5.68;;;19.90;61.50;;;;;;6273184;22;20000;-78
2023/06/13 05:22:03;;;;;;;6.43;5.78;;;20.00;61.90;;;;;;6272439;22;20011;-78
2023/06/13 05:24:29;;;;;;;7.82;6.10;;;20.00;61.80;;;;;;6272823;22;20007;-78
2023/06/13 05:26:54;;;;;;;7.97;6.05;;;20.10;61.90;;;;;;6271589;22;20425;-78
2023/06/13 05:29:20;;;;;;;8.20;5.75;;;20.10;61.70;;;;;;6272994;22;20031;-78
2023/06/13 05:31:45;;;;;;;8.55;5.25;;;20.20;61.50;;;;;;6272806;22;20022;-77
2023/06/13 05:34:11;;;;;;;7.88;5.20;;;20.20;61.50;;;;;;6272545;22;20484;-77
2023/06/13 05:36:36;;;;;;;9.88;6.28;;;20.30;61.60;;;;;;6273080;22;20313;-79
2023/06/13 05:39:02;;;;;;;6.50;5.70;;;20.30;62.00;;;;;;6272333;22;20000;-79
2023/06/13 05:41:28;;;;;;;8.30;5.95;;;20.40;61.50;;;;;;6272263;22;20000;-78
2023/06/13 05:43:53;;;;;;;9.63;6.20;;;20.40;61.50;;;;;;6272405;22;19992;-78
2023/06/13 05:46:19;;;;;;;6.65;5.95;;;20.50;61.30;;;;;;6272772;22;20070;-79
2023/06/13 05:48:45;;;;;;;6.20;5.53;;;20.50;61.20;;;;;;6272525;22;20000;-77
2023/06/13 05:51:10;;;;;;;6.05;5.47;;;20.60;61.30;;;;;;6272532;22;19996;-79
2023/06/13 05:53:36;;;;;;;7.07;5.15;;;20.60;61.40;;;;;;6271842;22;20004;-78
2023/06/13 05:56:02;;;;;;;6.45;5.72;;;20.70;61.40;;;;;;6272021;22;20417;-78
2023/06/13 05:58:27;;;;;;;8.02;5.75;;;20.70;61.20;;;;;;6270974;22;20035;-78
2023/06/13 06:00:53;;;;;;;6.20;5.47;;;20.70;61.20;;;;;;6270895;22;20012;-78
2023/06/13 06:03:19;;;;;;;6.30;5.70;;;20.80;61.30;;;;;;6272251;22;20004;-77
2023/06/13 06:05:46;;;;;;;7.55;6.55;;;20.90;61.70;;;;;;6272039;22;20375;-78
2023/06/13 06:08:14;;;;;;;6.25;5.15;;;20.90;61.60;;;;;;6271325;22;20066;-78
2023/06/13 06:10:40;;;;;;;7.15;5.68;;;21.00;61.60;;;;;;6272174;22;20429;-79
2023/06/13 06:13:05;;;;;;;7.63;5.78;;;21.10;61.30;;;;;;6272172;22;20004;-78
2023/06/13 06:15:37;;;;;;;8.13;6.57;;;21.20;61.40;;;;;;6272565;22;20058;-78
2023/06/13 06:18:03;;;;;;;8.07;6.00;;;21.10;61.20;;;;;;6271974;22;20004;-78
2023/06/13 06:20:28;;;;;;;7.10;6.18;;;21.20;61.00;;;;;;6272462;22;20071;-78
2023/06/13 06:22:54;;;;;;;9.20;6.00;;;21.20;61.20;;;;;;6271186;22;20372;-78
2023/06/13 06:25:19;;;;;;;6.05;5.53;;;21.30;61.40;;;;;;6272214;22;20341;-77
2023/06/13 06:27:49;;;;;;;6.60;5.28;;;21.40;61.50;;;;;;6244862;22;20027;-77
2023/06/13 06:30:15;;;;;;;5.93;5.32;;;21.40;61.20;;;;;;6271882;22;20049;-78
2023/06/13 06:32:41;;;;;;;7.80;5.70;;;21.40;61.10;;;;;;6244577;22;20012;-78
2023/06/13 06:35:07;;;;;;;6.22;5.03;;;21.50;61.20;;;;;;6271937;22;20079;-79
2023/06/13 06:37:33;;;;;;;7.15;5.63;;;21.60;61.10;;;;;;6244389;22;20038;-78
2023/06/13 06:39:59;;;;;;;6.68;5.47;;;21.60;60.80;;;;;;6271504;22;20008;-78
2023/06/13 06:42:25;;;;;;;6.93;4.70;;;21.70;61.10;;;;;;6270979;22;20080;-80
2023/06/13 06:44:51;;;;;;;6.35;5.30;;;21.70;61.40;;;;;;6270889;22;20375;-79
2023/06/13 06:47:17;;;;;;;6.85;4.97;;;21.80;61.50;;;;;;6270364;22;20014;-78
2023/06/13 06:49:42;;;;;;;6.40;5.13;;;21.90;61.30;;;;;;6271495;22;20004;-78
2023/06/13 06:52:08;;;;;;;6.53;5.38;;;21.90;61.10;;;;;;6271201;22;19999;-78
2023/06/13 06:54:34;;;;;;;7.50;5.50;;;22.00;61.10;;;;;;6272830;22;19999;-78
2023/06/13 06:57:00;;;;;;;7.47;5.40;;;22.10;61.10;;;;;;6272962;22;20037;-77
2023/06/13 06:59:26;;;;;;;6.93;5.90;;;22.10;60.90;;;;;;6271761;22;20030;-77
2023/06/13 07:01:51;;;;;;;7.03;6.32;;;22.10;61.00;;;;;;6270356;22;19992;-79
2023/06/13 07:04:17;;;;;;;10.48;5.53;;;22.20;60.90;;;;;;6269500;22;20084;-78
2023/06/13 07:06:43;;;;;;;8.88;6.55;;;22.30;60.90;;;;;;6241703;22;20003;-76
2023/06/13 07:09:11;;;;;;;8.35;5.50;;;22.30;61.00;;;;;;6270393;22;20075;-78
2023/06/13 07:11:37;;;;;;;7.38;6.38;;;22.40;61.00;;;;;;6271180;22;20547;-77
2023/06/13 07:14:02;;;;;;;7.93;6.35;;;22.40;60.80;;;;;;6242225;22;20003;-78
2023/06/13 07:16:28;;;;;;;5.80;5.28;;;22.50;60.90;;;;;;6244882;22;20008;-78
2023/06/13 07:18:53;;;;;;;7.13;6.13;;;22.50;60.80;;;;;;6271209;22;20019;-77
2023/06/13 07:21:19;;;;;;;6.03;5.43;;;22.60;61.00;;;;;;6270714;22;20630;-78
2023/06/13 07:23:45;;;;;;;10.65;5.97;;;22.70;60.70;;;;;;6270763;22;20010;-78
2023/06/13 07:26:11;;;;;;;8.45;5.28;;;22.80;60.20;;;;;;6240696;22;20003;-77
2023/06/13 07:28:37;;;;;;;8.38;5.70;;;22.80;60.00;;;;;;6270590;22;19999;-78
2023/06/13 07:31:03;;;;;;;7.32;5.80;;;22.90;59.40;;;;;;6270765;22;20049;-77
2023/06/13 07:33:28;;;;;;;7.45;5.57;;;23.00;59.20;;;;;;6270991;22;20270;-78
2023/06/13 07:35:56;;;;;;;9.23;5.93;;;23.00;60.00;;;;;;6268921;22;20270;-77
2023/06/13 07:38:22;;;;;;;10.45;5.60;;;23.10;59.50;;;;;;6271655;22;20004;-78
2023/06/13 07:40:47;;;;;;;6.82;5.75;;;23.20;59.10;;;;;;6242872;22;20079;-78
2023/06/13 07:43:13;;;;;;;8.40;5.20;;;23.30;59.00;;;;;;6243207;22;20037;-77
2023/06/13 07:45:39;;;;;;;7.28;5.45;;;23.40;59.10;;;;;;6242124;22;20018;-78
2023/06/13 07:48:05;;;;;;;8.43;5.55;;;23.50;59.00;;;;;;6268990;22;20003;-79
2023/06/13 07:50:30;;;;;;;6.25;4.97;;;23.70;58.70;;;;;;6270326;22;20042;-78
2023/06/13 07:52:56;;;;;;;12.23;5.90;;;23.80;58.70;;;;;;6269602;22;19992;-77
2023/06/13 07:55:22;;;;;;;7.53;5.43;;;23.90;58.60;;;;;;6271006;22;20079;-78
2023/06/13 07:57:47;;;;;;;9.73;5.53;;;24.00;58.40;;;;;;6269498;22;20333;-77
2023/06/13 08:00:17;;;;;;;18.88;5.60;;;24.10;58.10;;;;;;6245608;22;20517;-78
2023/06/13 08:02:44;;;;;;;5.13;4.32;;;24.20;57.30;;;;;;6273156;22;20031;-77
2023/06/13 08:05:11;;;;;;;6.15;5.40;;;24.30;56.90;;;;;;6272356;22;20075;-78
2023/06/13 08:07:36;;;;;;;5.55;5.05;;;24.30;56.70;;;;;;6272962;22;19992;-78
2023/06/13 08:10:02;;;;;;;7.40;5.43;;;24.50;56.80;;;;;;6271744;22;20073;-78
2023/06/13 08:12:27;;;;;;;5.65;5.05;;;24.50;56.50;;;;;;6273489;22;20153;-79
2023/06/13 08:14:53;;;;;;;6.57;5.03;;;24.60;56.00;;;;;;6272985;22;19996;-78
2023/06/13 08:17:18;;;;;;;8.35;5.63;;;24.70;56.20;;;;;;6246131;22;20414;-78
2023/06/13 08:19:48;;;;;;;7.95;5.65;;;24.70;55.70;;;;;;6243931;22;20010;-78
2023/06/13 08:22:14;;;;;;;6.55;4.85;;;24.90;55.40;;;;;;6273001;22;20337;-79
2023/06/13 08:24:40;;;;;;;5.43;4.93;;;24.90;55.30;;;;;;6273111;22;20008;-79
2023/06/13 08:27:12;;;;;;;5.63;4.47;;;25.00;55.30;;;;;;6272782;22;20083;-78
2023/06/13 08:29:37;;;;;;;7.90;5.20;;;25.10;54.80;;;;;;6272274;22;20018;-78
2023/06/13 08:32:03;;;;;;;6.78;5.28;;;25.20;54.10;;;;;;6272469;22;19999;-79
2023/06/13 08:34:30;;;;;;;9.18;5.07;;;25.20;53.70;;;;;;6272076;22;20075;-78
2023/06/13 08:36:56;;;;;;;4.97;4.47;;;25.20;53.90;;;;;;6272371;22;20023;-77
2023/06/13 08:39:22;;;;;;;6.28;5.35;;;25.20;53.80;;;;;;6271969;22;20000;-79
2023/06/13 08:41:49;;;;;;;7.05;5.18;;;25.30;53.10;;;;;;6243476;22;20004;-79
2023/06/13 08:44:16;;;;;;;3.78;3.47;;;25.30;53.00;;;;;;6244529;22;20011;-77
2023/06/13 08:46:42;;;;;;;7.40;4.97;;;25.40;53.30;;;;;;6271693;22;19999;-77
2023/06/13 08:49:08;;;;;;;7.43;4.68;;;25.40;53.10;;;;;;6243477;22;20007;-78
2023/06/13 08:51:35;;;;;;;11.73;5.18;;;25.50;53.40;;;;;;6270260;22;20144;-77
2023/06/13 08:54:03;;;;;;;5.50;4.82;;;25.50;53.30;;;;;;6244157;22;20004;-77
2023/06/13 08:56:38;;;;;;;7.95;5.32;;;25.60;53.40;;;;;;6244013;22;20508;-78
2023/06/13 08:59:07;;;;;;;4.75;4.35;;;25.70;53.50;;;;;;6271940;22;20015;-78
2023/06/13 09:01:34;;;;;;;4.95;4.55;;;25.80;52.90;;;;;;6271282;22;20337;-79
2023/06/13 09:04:00;;;;;;;9.13;5.07;;;25.90;53.10;;;;;;6269892;22;20027;-77
2023/06/13 09:06:27;;;;;;;9.20;4.93;;;26.00;52.90;;;;;;6272139;22;20027;-78
2023/06/13 09:08:55;;;;;;;4.43;4.03;;;26.10;52.80;;;;;;6271699;22;20004;-77
2023/06/13 09:11:20;;;;;;;12.73;5.70;;;26.10;51.90;;;;;;6271390;22;19996;-78
2023/06/13 09:13:47;;;;;;;5.25;4.05;;;26.20;51.60;;;;;;6270930;22;20006;-77
2023/06/13 09:16:13;;;;;;;6.03;4.72;;;26.20;51.30;;;;;;6272000;22;20007;-78
2023/06/13 09:18:42;;;;;;;4.88;4.32;;;26.20;51.20;;;;;;6270865;22;20078;-78
2023/06/13 09:21:09;;;;;;;5.03;4.50;;;26.30;50.80;;;;;;6271126;22;20087;-78
2023/06/13 09:23:35;;;;;;;5.28;4.78;;;26.30;50.70;;;;;;6272191;22;20007;-78
2023/06/13 09:26:02;;;;;;;6.70;3.97;;;26.40;50.60;;;;;;6270319;22;20394;-77
2023/06/13 09:28:40;;;;;;;4.82;4.43;;;26.40;50.40;;;;;;6272110;22;20079;-78
2023/06/13 09:31:07;;;;;;;6.53;4.18;;;26.40;49.80;;;;;;6271022;22;19999;-78
2023/06/13 09:33:33;;;;;;;5.75;4.90;;;26.40;49.70;;;;;;6272527;22;20087;-78
2023/06/13 09:35:59;;;;;;;8.60;4.38;;;26.50;50.10;;;;;;6242686;22;20003;-79
2023/06/13 09:38:25;;;;;;;9.05;4.65;;;26.60;50.10;;;;;;6272117;22;20027;-79
2023/06/13 09:40:55;;;;;;;4.80;4.30;;;26.60;50.40;;;;;;6271454;22;20381;-76
2023/06/13 09:43:23;;;;;;;4.50;4.10;;;26.70;49.00;;;;;;6272003;22;20203;-77
2023/06/13 09:45:50;;;;;;;4.95;4.00;;;26.80;47.60;;;;;;6270886;22;20007;-76
2023/06/13 09:48:17;;;;;;;4.47;3.63;;;26.80;47.10;;;;;;6243503;22;20000;-78
2023/06/13 09:50:43;;;;;;;4.32;3.55;;;26.80;47.50;;;;;;6271521;22;20444;-77
2023/06/13 09:53:09;;;;;;;5.22;4.32;;;26.80;47.30;;;;;;6271805;22;20000;-79
2023/06/13 09:55:35;;;;;;;7.40;4.32;;;26.80;47.40;;;;;;6272626;22;20182;-79
2023/06/13 09:58:04;;;;;;;4.72;4.20;;;26.90;46.90;;;;;;6269880;22;20007;-77
2023/06/13 10:00:31;;;;;;;4.88;4.47;;;26.90;46.90;;;;;;6271422;22;20091;-78
2023/06/13 10:02:56;;;;;;;4.95;4.15;;;27.00;47.80;;;;;;6271462;22;20275;-78
2023/06/13 10:05:23;;;;;;;5.72;4.78;;;27.00;47.80;;;;;;6271960;22;20015;-79
2023/06/13 10:07:49;;;;;;;4.68;4.10;;;27.10;47.10;;;;;;6270889;22;20057;-78
2023/06/13 10:10:15;;;;;;;4.63;4.10;;;27.10;46.90;;;;;;6242511;22;20032;-79
2023/06/13 10:12:47;;;;;;;6.65;4.57;;;27.20;46.80;;;;;;6271604;22;19996;-78
2023/06/13 10:15:19;;;;;;;4.72;4.25;;;27.30;46.00;;;;;;6271063;22;20004;-79
2023/06/13 10:17:45;;;;;;;5.60;4.25;;;27.30;46.10;;;;;;6244705;22;20337;-79
2023/06/13 10:20:15;;;;;;;5.05;4.53;;;27.20;45.80;;;;;;6269990;22;20023;-78
2023/06/13 10:22:41;;;;;;;4.60;4.20;;;27.20;45.30;;;;;;6243402;22;20318;-79
2023/06/13 10:25:11;;;;;;;5.85;4.60;;;27.20;45.40;;;;;;6243091;22;20143;-79
2023/06/13 10:27:45;;;;;;;5.47;4.97;;;27.20;45.50;;;;;;6272122;22;20303;-79
2023/06/13 10:30:40;;;;;;;4.95;4.38;;;27.30;45.80;;;;;;6269410;22;20066;-78
2023/06/13 10:33:06;;;;;;;6.18;4.47;;;27.40;45.50;;;;;;6272231;22;20022;-79
2023/06/13 10:36:00;;;;;;;5.78;4.32;;;27.40;44.90;;;;;;6272267;22;20422;-79
2023/06/13 10:38:45;;;;;;;5.95;5.35;;;27.40;44.70;;;;;;6271443;22;20003;-79
2023/06/13 10:41:16;;;;;;;5.50;4.95;;;27.50;45.30;;;;;;6272357;22;20079;-79
2023/06/13 10:43:53;;;;;;;5.47;4.97;;;27.50;45.20;;;;;;6273235;22;20004;-79
2023/06/13 10:46:19;;;;;;;4.80;4.25;;;27.50;44.50;;;;;;6272780;22;19999;-79
2023/06/13 10:48:50;;;;;;;6.22;5.00;;;27.60;44.30;;;;;;6244360;22;20004;-79
2023/06/13 10:51:20;;;;;;;5.88;4.85;;;27.60;44.30;;;;;;6271313;22;20006;-79
2023/06/13 10:53:46;;;;;;;5.35;4.55;;;27.50;44.80;;;;;;6270150;22;20044;-77
2023/06/13 10:56:12;;;;;;;5.10;4.60;;;27.50;45.00;;;;;;6244020;22;20401;-78
2023/06/13 10:58:40;;;;;;;5.25;4.75;;;27.60;44.80;;;;;;6272631;22;20042;-78
2023/06/13 11:01:23;;;;;;;6.95;4.80;;;27.60;45.20;;;;;;6246177;22;20018;-79
2023/06/13 11:03:49;;;;;;;7.57;5.10;;;27.70;45.10;;;;;;6271164;22;20023;-79
2023/06/13 11:06:16;;;;;;;5.32;4.82;;;27.70;45.10;;;;;;6271835;22;20502;-79
2023/06/13 11:08:42;;;;;;;5.72;5.13;;;27.80;45.40;;;;;;6271009;22;19996;-80
2023/06/13 11:11:09;;;;;;;6.20;4.85;;;27.80;45.00;;;;;;6270019;22;20031;-78
2023/06/13 11:13:36;;;;;;;6.55;5.30;;;27.80;44.40;;;;;;6270586;22;20030;-78
2023/06/13 11:16:38;;;;;;;7.93;5.65;;;27.70;44.80;;;;;;6269451;22;20000;-79
2023/06/13 11:19:21;;;;;;;5.63;4.97;;;27.70;45.10;;;;;;6271170;22;20018;-78
2023/06/13 11:22:09;;;;;;;6.30;4.78;;;27.70;45.30;;;;;;6272692;22;19999;-78
2023/06/13 11:24:35;;;;;;;5.00;4.55;;;27.80;45.50;;;;;;6269733;22;20478;-78
2023/06/13 11:27:06;;;;;;;5.55;5.05;;;27.80;44.60;;;;;;6269736;22;20000;-79
2023/06/13 11:29:32;;;;;;;7.05;6.35;;;27.80;44.70;;;;;;6271114;22;19995;-79
2023/06/13 11:32:00;;;;;;;5.38;4.70;;;27.80;44.40;;;;;;6270306;22;20010;-79
2023/06/13 11:34:31;;;;;;;6.00;5.35;;;27.80;44.20;;;;;;6270306;22;20345;-79
2023/06/13 11:37:05;;;;;;;5.10;4.63;;;27.80;44.10;;;;;;6268912;22;20043;-79
2023/06/13 11:39:36;;;;;;;5.75;5.25;;;27.80;44.20;;;;;;6271132;22;20410;-80
2023/06/13 11:42:02;;;;;;;6.63;4.72;;;27.70;44.60;;;;;;6267738;22;20057;-79
2023/06/13 11:44:28;;;;;;;6.88;4.97;;;27.80;44.30;;;;;;6270180;22;20010;-79
2023/06/13 11:46:54;;;;;;;6.35;5.60;;;27.80;44.50;;;;;;6242465;22;20011;-78
2023/06/13 11:49:20;;;;;;;6.57;4.97;;;27.70;44.20;;;;;;6270555;22;19996;-80
2023/06/13 11:51:45;;;;;;;6.53;4.90;;;27.70;43.70;;;;;;6244173;22;20000;-78
2023/06/13 11:54:11;;;;;;;9.07;5.20;;;27.70;43.90;;;;;;6243247;22;20452;-79
2023/06/13 11:56:49;;;;;;;7.95;4.68;;;27.60;43.80;;;;;;6243639;22;20431;-79
2023/06/13 11:59:20;;;;;;;6.05;5.10;;;27.60;44.30;;;;;;6268226;22;20037;-79
2023/06/13 12:01:52;;;;;;;6.95;5.28;;;27.70;44.10;;;;;;6271252;22;20150;-79
2023/06/13 12:04:18;;;;;;;6.30;5.70;;;27.70;44.00;;;;;;6270975;22;20010;-78
2023/06/13 12:06:44;;;;;;;5.97;5.43;;;27.60;44.10;;;;;;6270988;22;20250;-79
2023/06/13 12:09:10;;;;;;;7.82;5.18;;;27.60;44.60;;;;;;6242421;22;20004;-78
2023/06/13 12:11:36;;;;;;;5.68;4.90;;;27.70;45.00;;;;;;6270462;22;19996;-79
2023/06/13 12:14:03;;;;;;;7.63;5.18;;;27.80;44.80;;;;;;6270163;22;20006;-78
2023/06/13 12:16:36;;;;;;;8.05;5.38;;;27.80;44.40;;;;;;6270752;22;20003;-79
2023/06/13 12:19:04;;;;;;;4.97;4.47;;;27.80;43.40;;;;;;6269587;22;20042;-80
2023/06/13 12:21:31;;;;;;;6.32;4.72;;;27.80;43.40;;;;;;6269947;22;20010;-79
2023/06/13 12:24:00;;;;;;;6.57;4.68;;;27.70;43.20;;;;;;6270556;22;20007;-79
2023/06/13 12:26:28;;;;;;;5.88;5.32;;;27.70;42.80;;;;;;6243214;22;20007;-79
2023/06/13 12:28:55;;;;;;;8.73;5.10;;;27.70;43.50;;;;;;6270111;22;20002;-78
2023/06/13 12:31:30;;;;;;;5.50;5.00;;;27.70;43.50;;;;;;6269299;22;20007;-78
2023/06/13 12:34:26;;;;;;;8.77;5.25;;;27.80;43.60;;;;;;6270342;22;19996;-78
2023/06/13 12:36:56;;;;;;;5.75;5.28;;;27.80;43.50;;;;;;6270041;22;19996;-79
2023/06/13 12:39:23;;;;;;;5.32;4.80;;;27.80;43.10;;;;;;6271374;22;20004;-78
2023/06/13 12:41:50;;;;;;;6.18;5.57;;;27.80;43.50;;;;;;6268811;22;20034;-78
2023/06/13 12:44:18;;;;;;;6.13;4.70;;;27.80;43.40;;;;;;6270522;22;20077;-78
2023/06/13 12:46:45;;;;;;;6.18;5.53;;;27.80;43.30;;;;;;6272782;22;20039;-79
2023/06/13 12:49:15;;;;;;;7.13;4.95;;;27.80;43.50;;;;;;6272946;22;20129;-79